createdAt,value
2022-08-06T00:00:18.385Z,99366.13
2022-08-06T00:02:54.047Z,99295.91
2022-08-06T00:05:27.501Z,99367.78
2022-08-06T00:07:58.539Z,99365.69
2022-08-06T00:10:29.819Z,99353.44
2022-08-06T00:13:00.271Z,99353.50
2022-08-06T00:16:10.537Z,99354.09
2022-08-06T00:18:16.780Z,99363.53
2022-08-06T00:20:45.324Z,99351.94
2022-08-06T00:23:16.807Z,99359.03
2022-08-06T00:25:52.423Z,99348.25
2022-08-06T00:28:31.568Z,99340.75
2022-08-06T00:31:01.133Z,99332.16
2022-08-06T00:33:44.068Z,99338.06
2022-08-06T00:36:19.084Z,99330.50
2022-08-06T00:38:52.470Z,99334.88
2022-08-06T00:41:20.084Z,99334.81
2022-08-06T00:43:50.108Z,99329.88
2022-08-06T00:46:17.161Z,99335.50
2022-08-06T00:48:53.917Z,99325.78
2022-08-06T00:51:22.428Z,99329.03
2022-08-06T00:53:49.754Z,99318.00
2022-08-06T00:56:26.822Z,99334.94
2022-08-06T00:59:03.391Z,99335.81
2022-08-06T01:01:32.986Z,99339.38
2022-08-06T01:04:17.731Z,99342.34
2022-08-06T01:06:55.144Z,99331.06
2022-08-06T01:09:25.293Z,99336.94
2022-08-06T01:11:52.278Z,99346.47
2022-08-06T01:14:38.156Z,99338.09
2022-08-06T01:17:56.152Z,99335.94
2022-08-06T01:21:57.883Z,99347.25
2022-08-06T01:23:58.532Z,99348.81
2022-08-06T01:26:55.503Z,99359.94
2022-08-06T01:29:34.956Z,99351.59
2022-08-06T01:32:15.674Z,99347.84
2022-08-06T01:35:04.689Z,99335.94
2022-08-06T01:37:59.374Z,99337.63
2022-08-06T01:40:32.981Z,99335.97
2022-08-06T01:43:03.199Z,99337.00
2022-08-06T01:45:55.471Z,99319.16
2022-08-06T01:48:28.563Z,99333.69
2022-08-06T01:51:01.953Z,99317.75
2022-08-06T01:54:02.697Z,99330.75
2022-08-06T01:56:30.926Z,99329.41
2022-08-06T01:59:00.030Z,99328.03
2022-08-06T02:01:28.368Z,99319.16
2022-08-06T02:04:18.763Z,99324.81
2022-08-06T02:06:49.700Z,99332.28
2022-08-06T02:09:22.696Z,99335.22
2022-08-06T02:12:10.729Z,99334.94
2022-08-06T02:14:45.836Z,99334.66
2022-08-06T02:17:18.225Z,99336.31
2022-08-06T02:20:18.704Z,99333.38
2022-08-06T02:22:56.852Z,99325.31
2022-08-06T02:25:30.806Z,99318.56
2022-08-06T02:28:01.399Z,99318.94
2022-08-06T02:30:37.082Z,99324.06
2022-08-06T02:33:11.208Z,99324.56
2022-08-06T02:36:20.439Z,99324.06
2022-08-06T02:38:58.400Z,99324.88
2022-08-06T02:41:53.778Z,99331.38
2022-08-06T02:44:28.514Z,99332.63
2022-08-06T02:47:17.100Z,99323.41
2022-08-06T02:49:56.844Z,99332.81
2022-08-06T02:52:42.033Z,99322.19
2022-08-06T02:55:34.435Z,99331.31
2022-08-06T02:58:38.675Z,99338.38
2022-08-06T03:01:10.409Z,99339.28
2022-08-06T03:03:40.756Z,99335.56
2022-08-06T03:06:26.759Z,99333.91
2022-08-06T03:08:59.126Z,99332.63
2022-08-06T03:11:31.201Z,99322.72
2022-08-06T03:14:02.090Z,99336.91
2022-08-06T03:16:36.035Z,99350.78
2022-08-06T03:19:53.989Z,99341.34
2022-08-06T03:21:56.936Z,99332.19
2022-08-06T03:24:26.688Z,99331.09
2022-08-06T03:26:58.815Z,99343.06
2022-08-06T03:29:27.980Z,99339.03
2022-08-06T03:31:58.419Z,99342.09
2022-08-06T03:34:27.095Z,99337.00
2022-08-06T03:36:57.122Z,99341.34
2022-08-06T03:39:25.629Z,99335.44
2022-08-06T03:42:07.201Z,99337.38
2022-08-06T03:44:36.602Z,99346.22
2022-08-06T03:47:08.448Z,99339.22
2022-08-06T03:49:41.765Z,99346.25
2022-08-06T03:52:14.602Z,99336.84
2022-08-06T03:54:48.024Z,99349.16
2022-08-06T03:57:22.028Z,99339.47
2022-08-06T04:00:02.395Z,99345.28
2022-08-06T04:02:45.976Z,99342.81
2022-08-06T04:05:21.252Z,99344.16
2022-08-06T04:07:56.523Z,99338.28
2022-08-06T04:10:34.662Z,99348.47
2022-08-06T04:13:08.158Z,99347.09
2022-08-06T04:15:55.834Z,99339.72
2022-08-06T04:18:26.939Z,99347.47
2022-08-06T04:20:59.530Z,99356.16
2022-08-06T04:23:45.483Z,99346.19
2022-08-06T04:26:15.564Z,99347.72
2022-08-06T04:28:44.828Z,99353.94
2022-08-06T04:31:13.151Z,99339.81
2022-08-06T04:33:47.152Z,99335.78
2022-08-06T04:36:25.415Z,99356.78
2022-08-06T04:38:54.158Z,99337.53
2022-08-06T04:41:24.792Z,99354.31
2022-08-06T04:43:55.398Z,99356.28
2022-08-06T04:46:22.851Z,99355.69
2022-08-06T04:48:56.727Z,99359.03
2022-08-06T04:52:36.504Z,99367.59
2022-08-06T04:54:27.709Z,99367.44
2022-08-06T04:56:56.904Z,99375.72
2022-08-06T04:59:25.552Z,99374.69
2022-08-06T05:02:01.034Z,99380.44
2022-08-06T05:04:32.611Z,99375.94
2022-08-06T05:07:10.612Z,99382.44
2022-08-06T05:09:43.397Z,99381.91
2022-08-06T05:12:14.666Z,99382.75
2022-08-06T05:14:55.905Z,99375.00
2022-08-06T05:17:34.918Z,99375.91
2022-08-06T05:20:26.155Z,99375.84
2022-08-06T05:23:01.287Z,99373.75
2022-08-06T05:25:35.995Z,99375.25
2022-08-06T05:28:10.925Z,99370.09
2022-08-06T05:30:47.170Z,99384.63
2022-08-06T05:33:32.235Z,99382.28
2022-08-06T05:36:07.616Z,99377.91
2022-08-06T05:38:40.945Z,99380.63
2022-08-06T05:41:25.915Z,99379.09
2022-08-06T05:44:00.320Z,99386.66
2022-08-06T05:46:41.637Z,99388.63
2022-08-06T05:49:58.196Z,99388.00
2022-08-06T05:52:13.896Z,99383.34
2022-08-06T05:54:55.575Z,99385.16
2022-08-06T05:57:33.546Z,99379.63
2022-08-06T06:00:41.905Z,99382.78
2022-08-06T06:03:02.560Z,99378.44
2022-08-06T06:06:06.551Z,99378.63
2022-08-06T06:08:29.750Z,99374.47
2022-08-06T06:11:10.501Z,99379.34
2022-08-06T06:13:58.746Z,99380.78
2022-08-06T06:16:34.329Z,99376.81
2022-08-06T06:19:10.731Z,99374.41
2022-08-06T06:22:05.387Z,99369.03
2022-08-06T06:24:32.668Z,99373.97
2022-08-06T06:27:35.953Z,99372.06
2022-08-06T06:30:12.085Z,99384.16
2022-08-06T06:33:04.065Z,99367.34
2022-08-06T06:35:36.954Z,99386.22
2022-08-06T06:38:26.236Z,99376.81
2022-08-06T06:41:19.593Z,99372.03
2022-08-06T06:44:01.664Z,99374.78
2022-08-06T06:46:44.933Z,99368.06
2022-08-06T06:49:59.031Z,99360.56
2022-08-06T06:52:32.277Z,99363.56
2022-08-06T06:55:15.523Z,99354.06
2022-08-06T06:57:52.597Z,99359.16
2022-08-06T07:00:43.337Z,99347.88
2022-08-06T07:03:09.557Z,99355.56
2022-08-06T07:06:02.958Z,99347.91
2022-08-06T07:08:30.204Z,99357.13
2022-08-06T07:11:00.509Z,99328.25
2022-08-06T07:13:47.791Z,99347.06
2022-08-06T07:16:35.954Z,99333.16
2022-08-06T07:19:10.862Z,99341.88
2022-08-06T07:21:42.443Z,99341.91
2022-08-06T07:24:36.892Z,99324.56
2022-08-06T07:27:04.029Z,99325.41
2022-08-06T07:29:59.241Z,99330.78
2022-08-06T07:32:31.294Z,99321.03
2022-08-06T07:34:59.323Z,99325.47
2022-08-06T07:37:38.434Z,99322.84
2022-08-06T07:40:10.293Z,99323.88
2022-08-06T07:42:39.958Z,99311.38
2022-08-06T07:45:11.188Z,99319.19
2022-08-06T07:47:55.054Z,99313.31
2022-08-06T07:50:25.397Z,99315.22
2022-08-06T07:52:56.347Z,99323.78
2022-08-06T07:55:37.091Z,99311.28
2022-08-06T07:58:08.356Z,99318.44
2022-08-06T08:00:38.868Z,99320.09
2022-08-06T08:03:57.639Z,99320.56
2022-08-06T08:06:28.457Z,99310.25
2022-08-06T08:09:07.725Z,99310.94
2022-08-06T08:12:25.774Z,99273.28
2022-08-06T08:14:29.713Z,99312.41
2022-08-06T08:16:56.608Z,99292.34
2022-08-06T08:19:34.484Z,99289.41
2022-08-06T08:22:15.807Z,99308.59
2022-08-06T08:24:51.307Z,99303.69
2022-08-06T08:27:23.774Z,99306.97
2022-08-06T08:29:56.886Z,99301.88
2022-08-06T08:32:24.556Z,99312.19
2022-08-06T08:34:52.822Z,99315.94
2022-08-06T08:37:20.700Z,99302.88
2022-08-06T08:39:48.073Z,99304.16
2022-08-06T08:42:31.716Z,99301.19
2022-08-06T08:45:03.016Z,99313.38
2022-08-06T08:47:47.187Z,99310.22
2022-08-06T08:50:21.756Z,99303.56
2022-08-06T08:52:52.032Z,99318.41
2022-08-06T08:57:08.195Z,99313.94
2022-08-06T08:58:39.843Z,99304.22
2022-08-06T09:01:00.684Z,99306.03
2022-08-06T09:03:28.000Z,99312.72
2022-08-06T09:05:57.009Z,99305.66
2022-08-06T09:09:01.237Z,99299.16
2022-08-06T09:12:03.185Z,99298.88
2022-08-06T09:14:08.764Z,99300.75
2022-08-06T09:16:38.038Z,99295.78
2022-08-06T09:19:11.971Z,99298.94
2022-08-06T09:21:38.965Z,99292.84
2022-08-06T09:24:10.855Z,99290.63
2022-08-06T09:26:54.503Z,99269.81
2022-08-06T09:29:31.774Z,99280.56
2022-08-06T09:32:02.091Z,99290.56
2022-08-06T09:34:50.761Z,99276.28
2022-08-06T09:37:30.247Z,99271.25
2022-08-06T09:40:18.395Z,99274.16
2022-08-06T09:42:51.754Z,99269.88
2022-08-06T09:45:42.130Z,99262.09
2022-08-06T09:48:17.297Z,99265.34
2022-08-06T09:50:47.530Z,99268.13
2022-08-06T09:53:18.832Z,99258.78
2022-08-06T09:55:49.222Z,99272.41
2022-08-06T09:58:27.952Z,99266.91
2022-08-06T10:00:54.800Z,99268.78
2022-08-06T10:04:04.640Z,99261.56
2022-08-06T10:06:14.595Z,99257.13
2022-08-06T10:08:46.127Z,99260.00
2022-08-06T10:11:41.555Z,99257.03
2022-08-06T10:14:31.409Z,99258.72
2022-08-06T10:17:11.039Z,99254.78
2022-08-06T10:19:52.419Z,99251.66
2022-08-06T10:22:22.004Z,99239.72
2022-08-06T10:24:57.366Z,99243.47
2022-08-06T10:27:36.339Z,99230.13
2022-08-06T10:30:10.274Z,99238.22
2022-08-06T10:33:03.073Z,99238.53
2022-08-06T10:35:31.891Z,99242.06
2022-08-06T10:38:14.314Z,99226.38
2022-08-06T10:40:44.660Z,99240.75
2022-08-06T10:43:34.301Z,99215.44
2022-08-06T10:46:06.548Z,99225.47
2022-08-06T10:50:20.383Z,99216.72
2022-08-06T10:51:56.713Z,99219.06
2022-08-06T10:54:13.397Z,99210.38
2022-08-06T10:56:47.750Z,99203.88
2022-08-06T10:59:19.380Z,99206.38
2022-08-06T11:02:12.268Z,99113.16
2022-08-06T11:04:53.637Z,99199.88
2022-08-06T11:08:14.346Z,99184.41
2022-08-06T11:11:19.772Z,99185.16
2022-08-06T11:14:03.559Z,99206.22
2022-08-06T11:16:34.524Z,99187.38
2022-08-06T11:19:09.672Z,99200.41
2022-08-06T11:21:59.043Z,99176.78
2022-08-06T11:24:25.458Z,99181.88
2022-08-06T11:27:01.204Z,99192.56
2022-08-06T11:29:55.248Z,99180.78
2022-08-06T11:32:47.027Z,99188.13
2022-08-06T11:35:42.873Z,99186.50
2022-08-06T11:38:59.276Z,99192.44
2022-08-06T11:41:55.041Z,99184.63
2022-08-06T11:44:30.427Z,99166.69
2022-08-06T11:47:31.108Z,99168.38
2022-08-06T11:50:09.015Z,99170.06
2022-08-06T11:52:41.548Z,99178.97
2022-08-06T11:55:22.528Z,99176.78
2022-08-06T11:58:19.362Z,99167.16
2022-08-06T12:01:03.634Z,99161.88
2022-08-06T12:03:48.106Z,99177.69
2022-08-06T12:06:27.186Z,99164.84
2022-08-06T12:09:21.132Z,99155.31
2022-08-06T12:11:51.070Z,99166.97
2022-08-06T12:14:49.091Z,99168.72
2022-08-06T12:17:18.019Z,99164.66
2022-08-06T12:20:01.820Z,99146.81
2022-08-06T12:22:32.694Z,99156.50
2022-08-06T12:25:10.780Z,99157.72
2022-08-06T12:27:49.725Z,99158.72
2022-08-06T12:30:37.143Z,99157.59
2022-08-06T12:33:11.809Z,99149.44
2022-08-06T12:35:57.894Z,99150.03
2022-08-06T12:38:31.068Z,99147.88
2022-08-06T12:41:09.543Z,99137.03
2022-08-06T12:43:46.288Z,99137.91
2022-08-06T12:46:25.006Z,99151.22
2022-08-06T12:48:56.997Z,99132.72
2022-08-06T12:51:27.732Z,99124.09
2022-08-06T12:54:00.418Z,99132.91
2022-08-06T12:56:32.710Z,99148.66
2022-08-06T12:59:05.945Z,99145.97
2022-08-06T13:02:07.526Z,99153.00
2022-08-06T13:04:30.154Z,99133.34
2022-08-06T13:07:00.167Z,99141.16
2022-08-06T13:09:34.891Z,99142.81
2022-08-06T13:12:29.506Z,99134.25
2022-08-06T13:15:22.867Z,99128.88
2022-08-06T13:18:40.975Z,99104.81
2022-08-06T13:21:06.354Z,99125.19
2022-08-06T13:23:43.754Z,99134.44
2022-08-06T13:26:23.679Z,99154.44
2022-08-06T13:30:31.380Z,99136.72
2022-08-06T13:32:28.240Z,99145.94
2022-08-06T13:35:00.049Z,99140.84
2022-08-06T13:37:57.588Z,99131.34
2022-08-06T13:40:51.841Z,99148.16
2022-08-06T13:43:54.821Z,99138.44
2022-08-06T13:46:27.878Z,99147.34
2022-08-06T13:48:58.459Z,99149.16
2022-08-06T13:51:28.628Z,99153.66
2022-08-06T13:54:04.169Z,99134.88
2022-08-06T13:56:41.826Z,99130.97
2022-08-06T13:59:10.931Z,99132.25
2022-08-06T14:01:45.652Z,99142.75
2022-08-06T14:04:23.048Z,99129.97
2022-08-06T14:06:53.706Z,99124.91
2022-08-06T14:09:25.015Z,99135.25
2022-08-06T14:11:58.703Z,99146.94
2022-08-06T14:14:27.507Z,99146.81
2022-08-06T14:16:56.396Z,99151.59
2022-08-06T14:20:10.106Z,99154.38
2022-08-06T14:22:17.024Z,99151.78
2022-08-06T14:24:52.782Z,99158.13
2022-08-06T14:27:20.612Z,99138.09
2022-08-06T14:30:26.366Z,99137.47
2022-08-06T14:32:38.931Z,99141.47
2022-08-06T14:35:08.049Z,99139.63
2022-08-06T14:37:50.032Z,99147.97
2022-08-06T14:41:01.732Z,99139.94
2022-08-06T14:43:55.395Z,99147.91
2022-08-06T14:46:30.323Z,99151.38
2022-08-06T14:49:05.507Z,99135.09
2022-08-06T14:52:20.784Z,99149.00
2022-08-06T14:54:31.308Z,99133.09
2022-08-06T14:57:16.301Z,99142.50
2022-08-06T14:59:49.225Z,99149.53
2022-08-06T15:02:26.933Z,99138.75
2022-08-06T15:04:55.626Z,99144.00
2022-08-06T15:07:34.345Z,99154.38
2022-08-06T15:10:27.579Z,99149.97
2022-08-06T15:13:01.214Z,99153.47
2022-08-06T15:15:36.481Z,99155.66
2022-08-06T15:18:21.250Z,99165.44
2022-08-06T15:21:00.487Z,99163.09
2022-08-06T15:23:31.038Z,99165.84
2022-08-06T15:26:42.200Z,99156.59
2022-08-06T15:29:04.805Z,99167.94
2022-08-06T15:31:38.493Z,99166.66
2022-08-06T15:34:07.047Z,99168.22
2022-08-06T15:36:36.011Z,99176.06
2022-08-06T15:39:09.433Z,99157.81
2022-08-06T15:41:42.879Z,99173.84
2022-08-06T15:44:10.570Z,99179.56
2022-08-06T15:46:41.592Z,99187.41
2022-08-06T15:49:11.904Z,99176.81
2022-08-06T15:51:38.884Z,99163.47
2022-08-06T15:54:05.821Z,99177.59
2022-08-06T15:56:51.356Z,99178.75
2022-08-06T15:59:20.295Z,99162.41
2022-08-06T16:01:52.062Z,99162.41
2022-08-06T16:04:29.356Z,99173.81
2022-08-06T16:06:59.785Z,99186.25
2022-08-06T16:09:27.835Z,99177.69
2022-08-06T16:11:57.537Z,99185.78
2022-08-06T16:14:33.729Z,99173.91
2022-08-06T16:17:06.565Z,99182.34
2022-08-06T16:19:49.548Z,99189.78
2022-08-06T16:22:19.117Z,99189.81
2022-08-06T16:24:46.321Z,99190.91
2022-08-06T16:27:14.826Z,99188.09
2022-08-06T16:30:00.135Z,99186.56
2022-08-06T16:32:27.150Z,99185.22
2022-08-06T16:34:59.998Z,99199.41
2022-08-06T16:37:32.636Z,99208.22
2022-08-06T16:40:01.560Z,99206.47
2022-08-06T16:42:32.125Z,99190.59
2022-08-06T16:45:02.555Z,99206.81
2022-08-06T16:48:18.736Z,99198.13
2022-08-06T16:54:07.608Z,99211.75
2022-08-06T16:55:52.996Z,99226.75
2022-08-06T16:58:35.075Z,99209.09
2022-08-06T17:02:14.230Z,99226.94
2022-08-06T17:03:58.960Z,99225.84
2022-08-06T17:06:31.160Z,99231.53
2022-08-06T17:09:00.030Z,99230.25
2022-08-06T17:11:46.242Z,99234.28
2022-08-06T17:14:17.213Z,99221.19
2022-08-06T17:16:47.611Z,99239.34
2022-08-06T17:22:01.367Z,99234.38
2022-08-06T17:24:36.778Z,99241.16
2022-08-06T17:27:10.318Z,99239.84
2022-08-06T17:29:46.819Z,99237.13
2022-08-06T17:32:29.983Z,99244.34
2022-08-06T17:35:06.536Z,99250.13
2022-08-06T17:37:44.487Z,99248.53
2022-08-06T17:40:31.873Z,99248.88
2022-08-06T17:43:12.776Z,99240.38
2022-08-06T17:45:52.551Z,99236.22
2022-08-06T17:48:31.037Z,99256.25
2022-08-06T17:50:59.294Z,99251.59
2022-08-06T17:53:53.823Z,99265.84
2022-08-06T17:56:29.134Z,99259.94
2022-08-06T17:59:16.953Z,99268.75
2022-08-06T18:01:50.654Z,99261.38
2022-08-06T18:04:22.508Z,99275.78
2022-08-06T18:06:58.205Z,99283.81
2022-08-06T18:10:11.642Z,99273.69
2022-08-06T18:12:13.184Z,99275.00
2022-08-06T18:14:40.932Z,99286.50
2022-08-06T18:17:17.068Z,99286.50
2022-08-06T18:19:46.063Z,99280.63
2022-08-06T18:22:22.839Z,99289.19
2022-08-06T18:24:54.207Z,99279.44
2022-08-06T18:27:53.355Z,99300.19
2022-08-06T18:30:30.346Z,99298.88
2022-08-06T18:33:00.566Z,99287.44
2022-08-06T18:35:33.731Z,99297.41
2022-08-06T18:38:18.506Z,99296.91
2022-08-06T18:40:57.133Z,99282.75
2022-08-06T18:43:54.381Z,99293.50
2022-08-06T18:46:16.961Z,99289.66
2022-08-06T18:49:02.518Z,99303.47
2022-08-06T18:51:47.327Z,99286.44
2022-08-06T18:54:23.097Z,99289.59
2022-08-06T18:56:56.348Z,99266.44
2022-08-06T18:59:29.031Z,99288.28
2022-08-06T19:01:59.008Z,99288.09
2022-08-06T19:04:29.006Z,99293.81
2022-08-06T19:07:02.941Z,99286.59
2022-08-06T19:09:32.277Z,99286.34
2022-08-06T19:12:12.483Z,99284.72
2022-08-06T19:14:48.761Z,99289.09
2022-08-06T19:17:22.741Z,99280.13
2022-08-06T19:20:19.978Z,99281.91
2022-08-06T19:22:53.138Z,99288.66
2022-08-06T19:25:20.604Z,99287.03
2022-08-06T19:28:30.193Z,99282.88
2022-08-06T19:30:45.209Z,99287.06
2022-08-06T19:33:15.967Z,99282.50
2022-08-06T19:36:05.836Z,99278.56
2022-08-06T19:38:33.551Z,99285.66
2022-08-06T19:41:01.628Z,99291.63
2022-08-06T19:44:25.762Z,99289.03
2022-08-06T19:46:30.824Z,99294.31
2022-08-06T19:49:05.522Z,99291.09
2022-08-06T19:52:03.417Z,99297.09
2022-08-06T19:54:26.090Z,99298.38
2022-08-06T19:57:03.266Z,99294.31
2022-08-06T20:00:52.361Z,99298.75
2022-08-06T20:02:26.285Z,99301.47
2022-08-06T20:04:55.721Z,99301.22
2022-08-06T20:07:25.685Z,99307.44
2022-08-06T20:10:00.379Z,99292.47
2022-08-06T20:12:32.155Z,99293.06
2022-08-06T20:14:59.515Z,99291.75
2022-08-06T20:17:29.965Z,99295.88
2022-08-06T20:20:15.618Z,99297.56
2022-08-06T20:22:43.309Z,99293.88
2022-08-06T20:25:18.427Z,99298.13
2022-08-06T20:29:07.597Z,99296.94
2022-08-06T20:30:34.886Z,99298.97
2022-08-06T20:33:02.171Z,99295.94
2022-08-06T20:35:37.851Z,99286.09
2022-08-06T20:38:07.196Z,99282.88
2022-08-06T20:41:26.227Z,99290.69
2022-08-06T20:44:05.190Z,99287.47
2022-08-06T20:46:09.921Z,99282.78
2022-08-06T20:48:38.704Z,99283.38
2022-08-06T20:51:06.048Z,99288.66
2022-08-06T20:53:37.481Z,99286.59
2022-08-06T20:56:05.212Z,99277.94
2022-08-06T20:58:33.378Z,99284.19
2022-08-06T21:01:03.236Z,99285.59
2022-08-06T21:05:10.651Z,99291.91
2022-08-06T21:06:22.841Z,99294.56
2022-08-06T21:08:55.648Z,99283.50
2022-08-06T21:11:23.408Z,99281.41
2022-08-06T21:14:04.177Z,99290.06
2022-08-06T21:16:34.666Z,99284.91
2022-08-06T21:19:03.400Z,99292.16
2022-08-06T21:21:37.017Z,99285.47
2022-08-06T21:24:04.985Z,99286.28
2022-08-06T21:26:35.297Z,99278.63
2022-08-06T21:29:41.612Z,99282.47
2022-08-06T21:31:57.160Z,99280.03
2022-08-06T21:34:25.602Z,99276.41
2022-08-06T21:36:55.883Z,99279.97
2022-08-06T21:39:23.915Z,99279.91
2022-08-06T21:42:11.764Z,99282.13
2022-08-06T21:44:38.935Z,99273.97
2022-08-06T21:47:07.452Z,99268.59
2022-08-06T21:49:59.505Z,99278.88
2022-08-06T21:52:25.745Z,99268.06
2022-08-06T21:54:57.734Z,99271.63
2022-08-06T21:57:25.312Z,99273.53
2022-08-06T21:59:53.285Z,99258.78
2022-08-06T22:02:26.612Z,99263.66
2022-08-06T22:05:00.066Z,99259.84
2022-08-06T22:08:04.603Z,99269.59
2022-08-06T22:10:28.884Z,99259.47
2022-08-06T22:13:12.537Z,99268.84
2022-08-06T22:15:45.951Z,99267.22
2022-08-06T22:18:17.105Z,99265.22
2022-08-06T22:20:48.196Z,99271.78
2022-08-06T22:23:17.826Z,99271.78
2022-08-06T22:25:45.214Z,99280.72
2022-08-06T22:28:23.283Z,99274.06
2022-08-06T22:31:00.371Z,99273.59
2022-08-06T22:33:27.070Z,99271.09
2022-08-06T22:35:57.375Z,99257.09
2022-08-06T22:38:28.036Z,99260.53
2022-08-06T22:40:59.477Z,99257.81
2022-08-06T22:43:51.617Z,99255.50
2022-08-06T22:46:13.422Z,99253.56
2022-08-06T22:48:40.730Z,99250.16
2022-08-06T22:51:19.330Z,99241.41
2022-08-06T22:54:26.228Z,99252.47
2022-08-06T22:56:42.175Z,99244.91
2022-08-06T23:00:06.367Z,99241.16
2022-08-06T23:02:16.219Z,99244.00
2022-08-06T23:04:46.086Z,99244.69
2022-08-06T23:07:13.968Z,99253.88
2022-08-06T23:09:51.016Z,99249.25
2022-08-06T23:12:25.379Z,99261.91
2022-08-06T23:15:13.401Z,99262.53
2022-08-06T23:17:56.547Z,99257.78
2022-08-06T23:20:32.619Z,99255.97
2022-08-06T23:23:01.576Z,99255.97
2022-08-06T23:26:02.458Z,99252.53
2022-08-06T23:28:16.943Z,99233.66
2022-08-06T23:30:44.833Z,99242.81
2022-08-06T23:33:11.573Z,99235.75
2022-08-06T23:35:38.525Z,99237.44
2022-08-06T23:38:34.212Z,99219.66
2022-08-06T23:40:55.973Z,99221.47
2022-08-06T23:43:25.802Z,99201.31
2022-08-06T23:45:58.140Z,99218.56
2022-08-06T23:48:27.949Z,99214.44
2022-08-06T23:50:54.886Z,99208.97
2022-08-06T23:54:06.359Z,99207.06
2022-08-06T23:56:14.368Z,99206.84
2022-08-06T23:58:47.124Z,99205.53
